Terminal Aerodrome Forecast
Issued by NWS

Home | Current Version | Previous Version | Text Only | Print | Product List | Glossary On
Versions: 1 2 3 4 5 6 7 8 9 10 11 12 13
000
FTUS46 KSEW 051700
TAFBLI
TAF
KBLI 051733Z 0518/0618 15008KT P6SM -SHRA BKN018 BKN027 OVC045
     FM052200 18005KT P6SM VCSH SCT025 BKN040
     FM060100 21005KT P6SM VCSH SCT025 BKN050
     FM060600 VRB03KT P6SM BKN025 BKN050=

USA.gov is the U.S. government's official web portal to all federal, state and local government web resources and services.